sensor_id;sensor_type;location;lat;lon;timestamp;temperature;humidity
64961;SHT31;51487;52.266;10.542;2023-07-16T00:01:45;22.27;86.28
64961;SHT31;51487;52.266;10.542;2023-07-16T00:04:11;22.20;86.81
64961;SHT31;51487;52.266;10.542;2023-07-16T00:06:36;22.16;86.90
64961;SHT31;51487;52.266;10.542;2023-07-16T00:09:02;22.13;87.17
64961;SHT31;51487;52.266;10.542;2023-07-16T00:11:28;22.10;87.44
64961;SHT31;51487;52.266;10.542;2023-07-16T00:13:54;22.10;87.73
64961;SHT31;51487;52.266;10.542;2023-07-16T00:16:19;22.13;87.18
64961;SHT31;51487;52.266;10.542;2023-07-16T00:18:45;22.10;87.50
64961;SHT31;51487;52.266;10.542;2023-07-16T00:21:11;22.06;88.02
64961;SHT31;51487;52.266;10.542;2023-07-16T00:23:36;22.09;88.00
64961;SHT31;51487;52.266;10.542;2023-07-16T00:26:02;22.06;87.66
64961;SHT31;51487;52.266;10.542;2023-07-16T00:28:29;22.01;88.20
64961;SHT31;51487;52.266;10.542;2023-07-16T00:30:55;22.01;88.36
64961;SHT31;51487;52.266;10.542;2023-07-16T00:33:20;21.99;88.22
64961;SHT31;51487;52.266;10.542;2023-07-16T00:35:50;22.00;88.42
64961;SHT31;51487;52.266;10.542;2023-07-16T00:38:20;22.00;88.49
64961;SHT31;51487;52.266;10.542;2023-07-16T00:40:46;22.00;88.62
64961;SHT31;51487;52.266;10.542;2023-07-16T00:43:12;21.96;88.43
64961;SHT31;51487;52.266;10.542;2023-07-16T00:45:39;21.94;88.42
64961;SHT31;51487;52.266;10.542;2023-07-16T00:48:06;22.00;88.02
64961;SHT31;51487;52.266;10.542;2023-07-16T00:50:34;21.96;88.18
64961;SHT31;51487;52.266;10.542;2023-07-16T00:53:13;21.99;87.73
64961;SHT31;51487;52.266;10.542;2023-07-16T00:55:39;21.94;88.34
64961;SHT31;51487;52.266;10.542;2023-07-16T00:58:07;21.90;88.75
64961;SHT31;51487;52.266;10.542;2023-07-16T01:00:35;21.92;88.88
64961;SHT31;51487;52.266;10.542;2023-07-16T01:03:02;21.90;88.58
64961;SHT31;51487;52.266;10.542;2023-07-16T01:06:02;21.89;89.01
64961;SHT31;51487;52.266;10.542;2023-07-16T01:09:02;21.87;89.14
64961;SHT31;51487;52.266;10.542;2023-07-16T01:11:29;21.86;89.32
64961;SHT31;51487;52.266;10.542;2023-07-16T01:13:57;21.89;89.34
64961;SHT31;51487;52.266;10.542;2023-07-16T01:16:25;21.82;89.47
64961;SHT31;51487;52.266;10.542;2023-07-16T01:18:51;21.80;89.53
64961;SHT31;51487;52.266;10.542;2023-07-16T01:21:21;21.78;89.99
64961;SHT31;51487;52.266;10.542;2023-07-16T01:32:07;21.89;89.13
64961;SHT31;51487;52.266;10.542;2023-07-16T01:34:36;21.94;88.98
64961;SHT31;51487;52.266;10.542;2023-07-16T01:37:03;21.90;89.12
64961;SHT31;51487;52.266;10.542;2023-07-16T01:39:31;21.93;88.91
64961;SHT31;51487;52.266;10.542;2023-07-16T01:42:01;21.89;89.14
64961;SHT31;51487;52.266;10.542;2023-07-16T01:44:27;21.72;89.01
64961;SHT31;51487;52.266;10.542;2023-07-16T01:47:35;21.67;89.16
64961;SHT31;51487;52.266;10.542;2023-07-16T01:50:05;21.78;88.85
64961;SHT31;51487;52.266;10.542;2023-07-16T01:52:31;21.80;88.87
64961;SHT31;51487;52.266;10.542;2023-07-16T01:54:56;21.76;89.22
64961;SHT31;51487;52.266;10.542;2023-07-16T01:57:22;21.75;88.80
64961;SHT31;51487;52.266;10.542;2023-07-16T01:59:47;21.72;89.01
64961;SHT31;51487;52.266;10.542;2023-07-16T02:02:13;21.79;88.93
64961;SHT31;51487;52.266;10.542;2023-07-16T02:04:39;21.73;89.14
64961;SHT31;51487;52.266;10.542;2023-07-16T02:07:05;21.59;89.69
64961;SHT31;51487;52.266;10.542;2023-07-16T02:09:30;21.59;89.61
64961;SHT31;51487;52.266;10.542;2023-07-16T02:11:56;21.60;89.58
64961;SHT31;51487;52.266;10.542;2023-07-16T02:14:21;21.69;89.21
64961;SHT31;51487;52.266;10.542;2023-07-16T02:16:47;21.65;89.17
64961;SHT31;51487;52.266;10.542;2023-07-16T02:19:12;21.62;89.34
64961;SHT31;51487;52.266;10.542;2023-07-16T02:21:38;21.60;89.86
64961;SHT31;51487;52.266;10.542;2023-07-16T02:24:04;21.63;89.63
64961;SHT31;51487;52.266;10.542;2023-07-16T02:26:29;21.62;89.88
64961;SHT31;51487;52.266;10.542;2023-07-16T02:28:55;21.60;89.70
64961;SHT31;51487;52.266;10.542;2023-07-16T02:31:21;21.67;88.69
64961;SHT31;51487;52.266;10.542;2023-07-16T02:33:47;21.72;88.51
64961;SHT31;51487;52.266;10.542;2023-07-16T02:36:13;21.66;88.65
64961;SHT31;51487;52.266;10.542;2023-07-16T02:38:38;21.70;88.45
64961;SHT31;51487;52.266;10.542;2023-07-16T02:41:04;21.59;87.22
64961;SHT31;51487;52.266;10.542;2023-07-16T02:43:30;21.48;87.66
64961;SHT31;51487;52.266;10.542;2023-07-16T02:45:55;21.35;86.34
64961;SHT31;51487;52.266;10.542;2023-07-16T02:48:22;21.25;86.13
64961;SHT31;51487;52.266;10.542;2023-07-16T02:50:47;21.11;84.69
64961;SHT31;51487;52.266;10.542;2023-07-16T02:53:13;20.88;86.85
64961;SHT31;51487;52.266;10.542;2023-07-16T02:55:41;20.08;92.76
64961;SHT31;51487;52.266;10.542;2023-07-16T02:58:07;19.73;94.03
64961;SHT31;51487;52.266;10.542;2023-07-16T03:00:33;19.54;95.14
64961;SHT31;51487;52.266;10.542;2023-07-16T03:02:59;19.44;95.99
64961;SHT31;51487;52.266;10.542;2023-07-16T03:05:27;19.41;97.34
64961;SHT31;51487;52.266;10.542;2023-07-16T03:07:53;19.43;97.62
64961;SHT31;51487;52.266;10.542;2023-07-16T03:10:23;19.41;96.39
64961;SHT31;51487;52.266;10.542;2023-07-16T03:12:48;19.27;96.77
64961;SHT31;51487;52.266;10.542;2023-07-16T03:15:14;19.31;97.19
64961;SHT31;51487;52.266;10.542;2023-07-16T03:17:40;19.30;96.28
64961;SHT31;51487;52.266;10.542;2023-07-16T03:20:06;19.19;96.62
64961;SHT31;51487;52.266;10.542;2023-07-16T03:22:32;19.16;96.98
64961;SHT31;51487;52.266;10.542;2023-07-16T03:24:58;19.17;98.35
64961;SHT31;51487;52.266;10.542;2023-07-16T03:27:23;19.16;97.19
64961;SHT31;51487;52.266;10.542;2023-07-16T03:29:49;19.17;98.32
64961;SHT31;51487;52.266;10.542;2023-07-16T03:32:15;19.20;98.24
64961;SHT31;51487;52.266;10.542;2023-07-16T03:34:40;19.19;99.04
64961;SHT31;51487;52.266;10.542;2023-07-16T03:37:06;19.26;99.29
64961;SHT31;51487;52.266;10.542;2023-07-16T03:39:32;19.28;99.44
64961;SHT31;51487;52.266;10.542;2023-07-16T03:41:57;19.26;99.47
64961;SHT31;51487;52.266;10.542;2023-07-16T03:44:23;19.27;99.02
64961;SHT31;51487;52.266;10.542;2023-07-16T03:46:48;19.24;99.38
64961;SHT31;51487;52.266;10.542;2023-07-16T03:49:14;19.26;99.99
64961;SHT31;51487;52.266;10.542;2023-07-16T03:51:39;19.26;99.99
64961;SHT31;51487;52.266;10.542;2023-07-16T03:54:05;19.26;99.99
64961;SHT31;51487;52.266;10.542;2023-07-16T03:56:32;19.31;99.99
64961;SHT31;51487;52.266;10.542;2023-07-16T03:58:58;19.27;99.61
64961;SHT31;51487;52.266;10.542;2023-07-16T04:01:23;19.20;99.53
64961;SHT31;51487;52.266;10.542;2023-07-16T04:03:49;19.22;99.99
64961;SHT31;51487;52.266;10.542;2023-07-16T04:06:14;19.23;99.56
64961;SHT31;51487;52.266;10.542;2023-07-16T04:08:40;19.24;99.83
64961;SHT31;51487;52.266;10.542;2023-07-16T04:11:06;19.28;99.99
64961;SHT31;51487;52.266;10.542;2023-07-16T04:13:32;19.27;99.81
64961;SHT31;51487;52.266;10.542;2023-07-16T04:15:59;19.26;99.60
64961;SHT31;51487;52.266;10.542;2023-07-16T04:18:25;19.27;99.99
64961;SHT31;51487;52.266;10.542;2023-07-16T04:20:51;19.33;99.86
64961;SHT31;51487;52.266;10.542;2023-07-16T04:23:17;19.26;99.08
64961;SHT31;51487;52.266;10.542;2023-07-16T04:25:43;19.37;99.25
64961;SHT31;51487;52.266;10.542;2023-07-16T04:28:11;19.38;99.21
64961;SHT31;51487;52.266;10.542;2023-07-16T04:30:36;19.36;99.99
64961;SHT31;51487;52.266;10.542;2023-07-16T04:33:05;19.37;99.99
64961;SHT31;51487;52.266;10.542;2023-07-16T04:35:32;19.38;99.04
64961;SHT31;51487;52.266;10.542;2023-07-16T04:37:58;19.34;98.96
64961;SHT31;51487;52.266;10.542;2023-07-16T04:40:23;19.33;99.20
64961;SHT31;51487;52.266;10.542;2023-07-16T04:42:49;19.40;99.18
64961;SHT31;51487;52.266;10.542;2023-07-16T04:45:15;19.37;99.41
64961;SHT31;51487;52.266;10.542;2023-07-16T04:47:40;19.28;99.04
64961;SHT31;51487;52.266;10.542;2023-07-16T04:50:06;19.30;98.12
64961;SHT31;51487;52.266;10.542;2023-07-16T04:52:32;19.26;98.75
64961;SHT31;51487;52.266;10.542;2023-07-16T04:54:57;19.16;98.29
64961;SHT31;51487;52.266;10.542;2023-07-16T04:57:23;19.10;98.55
64961;SHT31;51487;52.266;10.542;2023-07-16T04:59:48;19.06;98.78
64961;SHT31;51487;52.266;10.542;2023-07-16T05:02:14;19.12;98.40
64961;SHT31;51487;52.266;10.542;2023-07-16T05:04:42;19.19;98.65
64961;SHT31;51487;52.266;10.542;2023-07-16T05:07:10;19.20;98.92
64961;SHT31;51487;52.266;10.542;2023-07-16T05:09:36;19.17;97.70
64961;SHT31;51487;52.266;10.542;2023-07-16T05:12:02;19.23;97.64
64961;SHT31;51487;52.266;10.542;2023-07-16T05:14:28;19.26;98.31
64961;SHT31;51487;52.266;10.542;2023-07-16T05:16:55;19.26;98.15
64961;SHT31;51487;52.266;10.542;2023-07-16T05:19:21;19.34;97.57
64961;SHT31;51487;52.266;10.542;2023-07-16T05:21:47;19.28;96.35
64961;SHT31;51487;52.266;10.542;2023-07-16T05:24:13;19.37;96.35
64961;SHT31;51487;52.266;10.542;2023-07-16T05:26:39;19.33;95.56
64961;SHT31;51487;52.266;10.542;2023-07-16T05:29:04;19.38;97.04
64961;SHT31;51487;52.266;10.542;2023-07-16T05:31:30;19.46;96.83
64961;SHT31;51487;52.266;10.542;2023-07-16T05:33:56;19.44;97.20
64961;SHT31;51487;52.266;10.542;2023-07-16T05:36:21;19.43;96.14
64961;SHT31;51487;52.266;10.542;2023-07-16T05:38:47;19.43;95.59
64961;SHT31;51487;52.266;10.542;2023-07-16T05:41:12;19.47;96.56
64961;SHT31;51487;52.266;10.542;2023-07-16T05:43:38;19.51;95.80
64961;SHT31;51487;52.266;10.542;2023-07-16T05:46:04;19.57;95.56
64961;SHT31;51487;52.266;10.542;2023-07-16T05:48:31;19.60;94.56
64961;SHT31;51487;52.266;10.542;2023-07-16T05:50:57;19.63;94.61
64961;SHT31;51487;52.266;10.542;2023-07-16T05:53:22;19.67;94.36
64961;SHT31;51487;52.266;10.542;2023-07-16T05:55:48;19.67;93.89
64961;SHT31;51487;52.266;10.542;2023-07-16T05:58:15;19.75;91.89
64961;SHT31;51487;52.266;10.542;2023-07-16T06:00:41;19.70;90.35
64961;SHT31;51487;52.266;10.542;2023-07-16T06:03:07;19.75;89.24
64961;SHT31;51487;52.266;10.542;2023-07-16T06:05:33;19.86;88.85
64961;SHT31;51487;52.266;10.542;2023-07-16T06:08:00;19.85;90.20
64961;SHT31;51487;52.266;10.542;2023-07-16T06:10:27;19.86;89.06
64961;SHT31;51487;52.266;10.542;2023-07-16T06:12:52;19.86;89.93
64961;SHT31;51487;52.266;10.542;2023-07-16T06:15:18;19.88;88.83
64961;SHT31;51487;52.266;10.542;2023-07-16T06:17:44;19.92;88.94
64961;SHT31;51487;52.266;10.542;2023-07-16T06:20:10;20.02;87.60
64961;SHT31;51487;52.266;10.542;2023-07-16T06:22:36;20.13;87.28
64961;SHT31;51487;52.266;10.542;2023-07-16T06:25:02;20.16;86.81
64961;SHT31;51487;52.266;10.542;2023-07-16T06:27:27;20.19;87.21
64961;SHT31;51487;52.266;10.542;2023-07-16T06:29:53;20.22;86.32
64961;SHT31;51487;52.266;10.542;2023-07-16T06:32:19;20.32;84.26
64961;SHT31;51487;52.266;10.542;2023-07-16T06:34:44;20.39;83.96
64961;SHT31;51487;52.266;10.542;2023-07-16T06:37:10;20.43;84.74
64961;SHT31;51487;52.266;10.542;2023-07-16T06:39:35;20.43;84.58
64961;SHT31;51487;52.266;10.542;2023-07-16T06:42:01;20.47;83.62
64961;SHT31;51487;52.266;10.542;2023-07-16T06:44:28;20.53;83.73
64961;SHT31;51487;52.266;10.542;2023-07-16T06:46:53;20.52;84.32
64961;SHT31;51487;52.266;10.542;2023-07-16T06:49:22;20.52;86.14
64961;SHT31;51487;52.266;10.542;2023-07-16T06:51:47;20.57;85.29
64961;SHT31;51487;52.266;10.542;2023-07-16T06:54:13;20.66;83.44
64961;SHT31;51487;52.266;10.542;2023-07-16T06:56:38;20.71;84.68
64961;SHT31;51487;52.266;10.542;2023-07-16T06:59:04;20.79;85.20
64961;SHT31;51487;52.266;10.542;2023-07-16T07:01:30;20.79;83.90
64961;SHT31;51487;52.266;10.542;2023-07-16T07:03:56;20.87;82.67
64961;SHT31;51487;52.266;10.542;2023-07-16T07:06:22;21.00;81.27
64961;SHT31;51487;52.266;10.542;2023-07-16T07:08:47;21.00;81.17
64961;SHT31;51487;52.266;10.542;2023-07-16T07:11:13;21.05;81.96
64961;SHT31;51487;52.266;10.542;2023-07-16T07:13:39;21.14;82.46
64961;SHT31;51487;52.266;10.542;2023-07-16T07:16:10;21.21;83.56
64961;SHT31;51487;52.266;10.542;2023-07-16T07:18:35;21.27;82.01
64961;SHT31;51487;52.266;10.542;2023-07-16T07:21:01;21.38;80.23
64961;SHT31;51487;52.266;10.542;2023-07-16T07:23:28;21.32;79.86
64961;SHT31;51487;52.266;10.542;2023-07-16T07:25:53;21.24;81.24
64961;SHT31;51487;52.266;10.542;2023-07-16T07:28:20;21.42;79.73
64961;SHT31;51487;52.266;10.542;2023-07-16T07:30:46;21.42;78.90
64961;SHT31;51487;52.266;10.542;2023-07-16T07:33:12;21.55;78.49
64961;SHT31;51487;52.266;10.542;2023-07-16T07:35:38;21.53;78.35
64961;SHT31;51487;52.266;10.542;2023-07-16T07:38:04;21.55;77.66
64961;SHT31;51487;52.266;10.542;2023-07-16T07:40:29;21.52;76.65
64961;SHT31;51487;52.266;10.542;2023-07-16T07:42:55;21.66;73.95
64961;SHT31;51487;52.266;10.542;2023-07-16T07:45:21;21.75;70.91
64961;SHT31;51487;52.266;10.542;2023-07-16T07:47:46;21.82;69.40
64961;SHT31;51487;52.266;10.542;2023-07-16T07:50:12;21.86;70.46
64961;SHT31;51487;52.266;10.542;2023-07-16T07:52:37;21.93;70.44
64961;SHT31;51487;52.266;10.542;2023-07-16T07:55:04;21.97;68.30
64961;SHT31;51487;52.266;10.542;2023-07-16T07:57:29;22.04;66.57
64961;SHT31;51487;52.266;10.542;2023-07-16T07:59:55;22.13;67.72
64961;SHT31;51487;52.266;10.542;2023-07-16T08:02:24;22.21;66.77
64961;SHT31;51487;52.266;10.542;2023-07-16T08:04:55;22.25;67.58
64961;SHT31;51487;52.266;10.542;2023-07-16T08:07:21;22.30;66.77
64961;SHT31;51487;52.266;10.542;2023-07-16T08:09:50;22.43;65.40
64961;SHT31;51487;52.266;10.542;2023-07-16T08:12:15;22.44;63.33
64961;SHT31;51487;52.266;10.542;2023-07-16T08:14:41;22.44;64.20
64961;SHT31;51487;52.266;10.542;2023-07-16T08:17:07;22.47;65.73
64961;SHT31;51487;52.266;10.542;2023-07-16T08:19:33;22.55;63.97
64961;SHT31;51487;52.266;10.542;2023-07-16T08:21:59;22.62;62.92
64961;SHT31;51487;52.266;10.542;2023-07-16T08:24:25;22.71;62.31
64961;SHT31;51487;52.266;10.542;2023-07-16T08:26:51;22.65;64.20
64961;SHT31;51487;52.266;10.542;2023-07-16T08:29:16;22.78;63.49
64961;SHT31;51487;52.266;10.542;2023-07-16T08:31:42;22.79;63.51
64961;SHT31;51487;52.266;10.542;2023-07-16T08:34:08;22.92;62.55
64961;SHT31;51487;52.266;10.542;2023-07-16T08:36:33;23.05;62.74
64961;SHT31;51487;52.266;10.542;2023-07-16T08:38:59;23.10;60.82
64961;SHT31;51487;52.266;10.542;2023-07-16T08:41:25;23.16;60.62
64961;SHT31;51487;52.266;10.542;2023-07-16T08:43:52;23.24;61.20
64961;SHT31;51487;52.266;10.542;2023-07-16T08:46:18;23.27;60.32
64961;SHT31;51487;52.266;10.542;2023-07-16T08:48:48;23.34;60.85
64961;SHT31;51487;52.266;10.542;2023-07-16T08:51:15;23.27;60.76
64961;SHT31;51487;52.266;10.542;2023-07-16T08:53:44;23.30;61.22
64961;SHT31;51487;52.266;10.542;2023-07-16T08:56:10;23.02;61.24
64961;SHT31;51487;52.266;10.542;2023-07-16T08:58:37;22.91;61.70
64961;SHT31;51487;52.266;10.542;2023-07-16T09:01:06;22.72;63.10
64961;SHT31;51487;52.266;10.542;2023-07-16T09:03:31;22.62;65.09
64961;SHT31;51487;52.266;10.542;2023-07-16T09:05:57;22.59;61.72
64961;SHT31;51487;52.266;10.542;2023-07-16T09:08:23;22.62;62.29
64961;SHT31;51487;52.266;10.542;2023-07-16T09:10:58;22.81;61.80
64961;SHT31;51487;52.266;10.542;2023-07-16T09:13:32;23.00;61.78
64961;SHT31;51487;52.266;10.542;2023-07-16T09:15:58;23.13;60.22
64961;SHT31;51487;52.266;10.542;2023-07-16T09:18:26;23.10;62.63
64961;SHT31;51487;52.266;10.542;2023-07-16T09:20:59;23.09;61.59
64961;SHT31;51487;52.266;10.542;2023-07-16T09:23:30;23.16;62.62
64961;SHT31;51487;52.266;10.542;2023-07-16T09:25:57;23.39;61.24
64961;SHT31;51487;52.266;10.542;2023-07-16T09:28:23;23.46;61.48
64961;SHT31;51487;52.266;10.542;2023-07-16T09:30:50;23.58;60.23
64961;SHT31;51487;52.266;10.542;2023-07-16T09:33:20;23.68;61.89
64961;SHT31;51487;52.266;10.542;2023-07-16T09:35:50;23.82;60.21
64961;SHT31;51487;52.266;10.542;2023-07-16T09:38:18;23.75;59.38
64961;SHT31;51487;52.266;10.542;2023-07-16T09:40:45;23.75;59.97
64961;SHT31;51487;52.266;10.542;2023-07-16T09:43:12;23.74;59.80
64961;SHT31;51487;52.266;10.542;2023-07-16T09:45:38;23.70;59.36
64961;SHT31;51487;52.266;10.542;2023-07-16T09:48:05;23.74;57.86
64961;SHT31;51487;52.266;10.542;2023-07-16T09:50:35;23.57;58.34
64961;SHT31;51487;52.266;10.542;2023-07-16T09:53:04;23.50;58.01
64961;SHT31;51487;52.266;10.542;2023-07-16T09:55:36;23.57;57.86
64961;SHT31;51487;52.266;10.542;2023-07-16T09:58:08;23.71;59.02
64961;SHT31;51487;52.266;10.542;2023-07-16T10:00:39;23.77;56.64
64961;SHT31;51487;52.266;10.542;2023-07-16T10:03:07;23.98;56.61
64961;SHT31;51487;52.266;10.542;2023-07-16T10:05:36;24.06;56.54
64961;SHT31;51487;52.266;10.542;2023-07-16T10:08:03;24.02;55.58
64961;SHT31;51487;52.266;10.542;2023-07-16T10:13:11;23.92;56.92
64961;SHT31;51487;52.266;10.542;2023-07-16T10:15:39;23.97;54.28
64961;SHT31;51487;52.266;10.542;2023-07-16T10:18:31;24.02;54.67
64961;SHT31;51487;52.266;10.542;2023-07-16T10:21:09;24.22;53.63
64961;SHT31;51487;52.266;10.542;2023-07-16T10:23:44;24.29;53.65
64961;SHT31;51487;52.266;10.542;2023-07-16T10:26:14;24.46;53.29
64961;SHT31;51487;52.266;10.542;2023-07-16T10:28:40;24.50;52.55
64961;SHT31;51487;52.266;10.542;2023-07-16T10:31:26;24.43;52.37
64961;SHT31;51487;52.266;10.542;2023-07-16T10:34:04;24.44;52.94
64961;SHT31;51487;52.266;10.542;2023-07-16T10:36:40;24.64;54.07
64961;SHT31;51487;52.266;10.542;2023-07-16T10:39:06;24.77;54.78
64961;SHT31;51487;52.266;10.542;2023-07-16T10:41:32;24.87;54.36
64961;SHT31;51487;52.266;10.542;2023-07-16T10:44:01;24.90;55.03
64961;SHT31;51487;52.266;10.542;2023-07-16T10:46:27;24.90;54.25
64961;SHT31;51487;52.266;10.542;2023-07-16T10:48:53;24.95;52.83
64961;SHT31;51487;52.266;10.542;2023-07-16T10:51:25;25.11;52.07
64961;SHT31;51487;52.266;10.542;2023-07-16T10:53:58;25.08;52.32
64961;SHT31;51487;52.266;10.542;2023-07-16T10:56:24;25.04;52.80
64961;SHT31;51487;52.266;10.542;2023-07-16T10:58:52;25.04;53.84
64961;SHT31;51487;52.266;10.542;2023-07-16T11:01:21;24.98;53.08
64961;SHT31;51487;52.266;10.542;2023-07-16T11:03:51;24.93;53.16
64961;SHT31;51487;52.266;10.542;2023-07-16T11:06:18;24.87;53.65
64961;SHT31;51487;52.266;10.542;2023-07-16T11:08:44;24.90;53.02
64961;SHT31;51487;52.266;10.542;2023-07-16T11:11:10;25.03;50.33
64961;SHT31;51487;52.266;10.542;2023-07-16T11:13:36;25.10;52.35
64961;SHT31;51487;52.266;10.542;2023-07-16T11:16:09;25.04;49.89
64961;SHT31;51487;52.266;10.542;2023-07-16T11:18:36;25.12;51.57
64961;SHT31;51487;52.266;10.542;2023-07-16T11:21:03;24.94;49.79
64961;SHT31;51487;52.266;10.542;2023-07-16T11:23:29;24.94;50.10
64961;SHT31;51487;52.266;10.542;2023-07-16T11:25:55;25.06;50.25
64961;SHT31;51487;52.266;10.542;2023-07-16T11:28:20;25.01;51.79
64961;SHT31;51487;52.266;10.542;2023-07-16T11:30:51;25.04;51.63
64961;SHT31;51487;52.266;10.542;2023-07-16T11:33:17;25.20;51.64
64961;SHT31;51487;52.266;10.542;2023-07-16T11:35:43;25.27;50.94
64961;SHT31;51487;52.266;10.542;2023-07-16T11:38:08;25.27;51.40
64961;SHT31;51487;52.266;10.542;2023-07-16T11:40:35;25.34;52.58
64961;SHT31;51487;52.266;10.542;2023-07-16T11:43:12;25.38;52.61
64961;SHT31;51487;52.266;10.542;2023-07-16T11:45:38;25.52;51.46
64961;SHT31;51487;52.266;10.542;2023-07-16T11:48:05;25.55;50.61
64961;SHT31;51487;52.266;10.542;2023-07-16T11:50:31;25.46;50.38
64961;SHT31;51487;52.266;10.542;2023-07-16T11:53:00;25.51;51.51
64961;SHT31;51487;52.266;10.542;2023-07-16T11:55:27;25.62;51.02
64961;SHT31;51487;52.266;10.542;2023-07-16T11:57:53;25.51;50.14
64961;SHT31;51487;52.266;10.542;2023-07-16T12:00:18;25.61;50.34
64961;SHT31;51487;52.266;10.542;2023-07-16T12:02:45;25.78;52.67
64961;SHT31;51487;52.266;10.542;2023-07-16T12:05:23;25.70;50.66
64961;SHT31;51487;52.266;10.542;2023-07-16T12:07:53;25.78;49.68
64961;SHT31;51487;52.266;10.542;2023-07-16T12:10:20;25.75;50.23
64961;SHT31;51487;52.266;10.542;2023-07-16T12:12:46;25.82;49.14
64961;SHT31;51487;52.266;10.542;2023-07-16T12:15:11;25.75;50.23
64961;SHT31;51487;52.266;10.542;2023-07-16T12:17:37;25.76;49.03
64961;SHT31;51487;52.266;10.542;2023-07-16T12:20:04;26.07;50.20
64961;SHT31;51487;52.266;10.542;2023-07-16T12:22:30;26.26;48.33
64961;SHT31;51487;52.266;10.542;2023-07-16T12:24:56;26.30;48.58
64961;SHT31;51487;52.266;10.542;2023-07-16T12:27:22;26.21;48.56
64961;SHT31;51487;52.266;10.542;2023-07-16T12:29:48;25.99;49.09
64961;SHT31;51487;52.266;10.542;2023-07-16T12:32:14;26.21;47.51
64961;SHT31;51487;52.266;10.542;2023-07-16T12:34:42;26.24;48.71
64961;SHT31;51487;52.266;10.542;2023-07-16T12:37:10;26.04;49.34
64961;SHT31;51487;52.266;10.542;2023-07-16T12:39:35;25.76;49.88
64961;SHT31;51487;52.266;10.542;2023-07-16T12:42:01;25.76;49.61
64961;SHT31;51487;52.266;10.542;2023-07-16T12:44:26;25.88;50.86
64961;SHT31;51487;52.266;10.542;2023-07-16T12:46:52;25.85;50.51
64961;SHT31;51487;52.266;10.542;2023-07-16T12:49:19;26.21;48.00
64961;SHT31;51487;52.266;10.542;2023-07-16T12:51:45;26.47;48.36
64961;SHT31;51487;52.266;10.542;2023-07-16T12:54:11;26.34;47.16
64961;SHT31;51487;52.266;10.542;2023-07-16T12:56:36;26.00;46.91
64961;SHT31;51487;52.266;10.542;2023-07-16T12:59:02;26.00;46.81
64961;SHT31;51487;52.266;10.542;2023-07-16T13:01:28;26.09;46.47
64961;SHT31;51487;52.266;10.542;2023-07-16T13:03:54;25.86;46.69
64961;SHT31;51487;52.266;10.542;2023-07-16T13:06:20;25.76;48.63
64961;SHT31;51487;52.266;10.542;2023-07-16T13:08:45;25.80;48.65
64961;SHT31;51487;52.266;10.542;2023-07-16T13:11:11;26.17;48.58
64961;SHT31;51487;52.266;10.542;2023-07-16T13:13:37;26.52;47.65
64961;SHT31;51487;52.266;10.542;2023-07-16T13:16:03;26.55;45.98
64961;SHT31;51487;52.266;10.542;2023-07-16T13:18:29;26.43;45.55
64961;SHT31;51487;52.266;10.542;2023-07-16T13:20:54;26.27;46.17
64961;SHT31;51487;52.266;10.542;2023-07-16T13:23:20;25.89;45.88
64961;SHT31;51487;52.266;10.542;2023-07-16T13:25:46;25.79;46.34
64961;SHT31;51487;52.266;10.542;2023-07-16T13:28:11;25.99;46.28
64961;SHT31;51487;52.266;10.542;2023-07-16T13:30:37;26.27;45.40
64961;SHT31;51487;52.266;10.542;2023-07-16T13:33:03;26.40;46.31
64961;SHT31;51487;52.266;10.542;2023-07-16T13:35:29;26.45;45.30
64961;SHT31;51487;52.266;10.542;2023-07-16T13:37:55;26.49;46.82
64961;SHT31;51487;52.266;10.542;2023-07-16T13:40:21;26.52;46.20
64961;SHT31;51487;52.266;10.542;2023-07-16T13:42:49;26.64;45.59
64961;SHT31;51487;52.266;10.542;2023-07-16T13:45:15;26.62;46.01
64961;SHT31;51487;52.266;10.542;2023-07-16T13:47:42;26.59;45.92
64961;SHT31;51487;52.266;10.542;2023-07-16T13:50:08;26.55;44.71
64961;SHT31;51487;52.266;10.542;2023-07-16T13:52:34;26.65;44.52
64961;SHT31;51487;52.266;10.542;2023-07-16T13:54:59;26.58;45.10
64961;SHT31;51487;52.266;10.542;2023-07-16T13:57:28;26.48;46.49
64961;SHT31;51487;52.266;10.542;2023-07-16T13:59:53;26.49;46.75
64961;SHT31;51487;52.266;10.542;2023-07-16T14:02:19;26.24;45.70
64961;SHT31;51487;52.266;10.542;2023-07-16T14:04:46;26.07;46.90
64961;SHT31;51487;52.266;10.542;2023-07-16T14:07:14;26.06;47.47
64961;SHT31;51487;52.266;10.542;2023-07-16T14:09:40;26.36;46.29
64961;SHT31;51487;52.266;10.542;2023-07-16T14:12:06;26.49;45.32
64961;SHT31;51487;52.266;10.542;2023-07-16T14:14:31;26.74;43.65
64961;SHT31;51487;52.266;10.542;2023-07-16T14:16:57;26.88;45.12
64961;SHT31;51487;52.266;10.542;2023-07-16T14:19:23;26.65;45.13
64961;SHT31;51487;52.266;10.542;2023-07-16T14:21:48;26.74;46.03
64961;SHT31;51487;52.266;10.542;2023-07-16T14:24:14;26.74;45.40
64961;SHT31;51487;52.266;10.542;2023-07-16T14:26:42;26.81;45.20
64961;SHT31;51487;52.266;10.542;2023-07-16T14:29:08;26.84;45.63
64961;SHT31;51487;52.266;10.542;2023-07-16T14:31:34;26.62;45.27
64961;SHT31;51487;52.266;10.542;2023-07-16T14:33:59;26.43;44.39
64961;SHT31;51487;52.266;10.542;2023-07-16T14:36:25;26.36;44.18
64961;SHT31;51487;52.266;10.542;2023-07-16T14:38:52;26.59;44.07
64961;SHT31;51487;52.266;10.542;2023-07-16T14:41:18;26.65;43.98
64961;SHT31;51487;52.266;10.542;2023-07-16T14:43:45;26.77;44.54
64961;SHT31;51487;52.266;10.542;2023-07-16T14:46:11;26.78;44.87
64961;SHT31;51487;52.266;10.542;2023-07-16T14:48:44;26.99;44.06
64961;SHT31;51487;52.266;10.542;2023-07-16T14:51:11;27.12;44.06
64961;SHT31;51487;52.266;10.542;2023-07-16T14:53:38;26.98;45.05
64961;SHT31;51487;52.266;10.542;2023-07-16T14:56:05;26.98;45.40
64961;SHT31;51487;52.266;10.542;2023-07-16T14:58:33;27.23;43.69
64961;SHT31;51487;52.266;10.542;2023-07-16T15:01:02;27.39;43.17
64961;SHT31;51487;52.266;10.542;2023-07-16T15:03:31;27.51;44.60
64961;SHT31;51487;52.266;10.542;2023-07-16T15:05:58;27.71;43.29
64961;SHT31;51487;52.266;10.542;2023-07-16T15:08:24;27.76;44.50
64961;SHT31;51487;52.266;10.542;2023-07-16T15:10:52;27.83;44.48
64961;SHT31;51487;52.266;10.542;2023-07-16T15:13:22;28.00;43.71
64961;SHT31;51487;52.266;10.542;2023-07-16T15:15:51;27.85;43.17
64961;SHT31;51487;52.266;10.542;2023-07-16T15:18:19;27.93;42.55
64961;SHT31;51487;52.266;10.542;2023-07-16T15:20:46;27.91;42.31
64961;SHT31;51487;52.266;10.542;2023-07-16T15:23:12;28.01;42.72
64961;SHT31;51487;52.266;10.542;2023-07-16T15:25:41;28.15;41.71